Time;durP1;ratioP1;P1;durP2;ratioP2;P2;SDS_P1;SDS_P2;PMS_P1;PMS_P2;Temp;Humidity;BMP_temperature;BMP_pressure;BME280_temperature;BME280_humidity;BME280_pressure;Samples;Min_cycle;Max_cycle;Signal;HPM_P1;HPM_P2
2023/06/06 00:01:54;;;;;;;;;;;19.20;57.90;;;;;;5029429;28;860;-69
2023/06/06 00:04:19;;;;;;;;;;;19.20;57.90;;;;;;5030094;28;1295;-69
2023/06/06 00:06:45;;;;;;;;;;;19.20;58.50;;;;;;5028708;28;792;-69
2023/06/06 00:09:11;;;;;;;;;;;19.20;58.00;;;;;;5028093;28;961;-70
2023/06/06 00:11:39;;;;;;;;;;;19.20;58.00;;;;;;5030507;28;817;-69
2023/06/06 00:14:06;;;;;;;;;;;19.20;58.10;;;;;;5028256;28;1914;-70
2023/06/06 00:16:32;;;;;;;;;;;19.20;58.10;;;;;;5029036;28;879;-70
2023/06/06 00:18:58;;;;;;;;;;;19.20;58.10;;;;;;5028534;28;799;-69
2023/06/06 00:21:24;;;;;;;;;;;19.20;58.20;;;;;;5030052;28;929;-70
2023/06/06 00:23:50;;;;;;;;;;;19.20;58.20;;;;;;5029161;28;1323;-69
2023/06/06 00:26:15;;;;;;;;;;;19.20;58.20;;;;;;5028974;28;926;-69
2023/06/06 00:28:41;;;;;;;;;;;19.20;58.20;;;;;;5028219;28;1236;-69
2023/06/06 00:31:06;;;;;;;;;;;19.20;58.20;;;;;;5030770;28;849;-69
2023/06/06 00:33:32;;;;;;;;;;;19.20;58.20;;;;;;5027965;28;1957;-70
2023/06/06 00:35:57;;;;;;;;;;;19.20;58.30;;;;;;5029570;28;859;-69
2023/06/06 00:38:23;;;;;;;;;;;19.20;58.30;;;;;;5030441;28;1822;-69
2023/06/06 00:40:48;;;;;;;;;;;19.20;58.30;;;;;;5026340;28;1416;-69
2023/06/06 00:43:14;;;;;;;;;;;19.20;58.30;;;;;;5029544;28;1350;-69
2023/06/06 00:45:39;;;;;;;;;;;19.20;58.40;;;;;;5028460;28;851;-69
2023/06/06 00:48:05;;;;;;;;;;;19.20;58.40;;;;;;5028620;28;883;-69
2023/06/06 00:50:30;;;;;;;;;;;19.20;58.40;;;;;;5024867;28;805;-69
2023/06/06 00:52:56;;;;;;;;;;;19.20;58.40;;;;;;5027669;28;1990;-69
2023/06/06 00:55:22;;;;;;;;;;;19.20;58.40;;;;;;5025300;28;964;-69
2023/06/06 00:57:48;;;;;;;;;;;19.20;58.50;;;;;;5023782;28;821;-69
2023/06/06 01:00:14;;;;;;;;;;;19.20;58.50;;;;;;5029390;28;805;-70
2023/06/06 01:02:43;;;;;;;;;;;19.20;58.50;;;;;;5027520;28;1252;-69
2023/06/06 01:05:09;;;;;;;;;;;19.20;58.50;;;;;;5027318;28;911;-69
2023/06/06 01:07:35;;;;;;;;;;;19.20;58.50;;;;;;5028710;28;892;-68
2023/06/06 01:10:04;;;;;;;;;;;19.20;58.60;;;;;;5026893;28;856;-69
2023/06/06 01:12:43;;;;;;;;;;;19.20;58.60;;;;;;5020717;28;1910;-70
2023/06/06 01:15:21;;;;;;;;;;;19.20;58.60;;;;;;5029572;28;816;-69
2023/06/06 01:17:46;;;;;;;;;;;19.20;58.60;;;;;;5027093;28;809;-69
2023/06/06 01:20:12;;;;;;;;;;;19.20;58.60;;;;;;5029495;28;845;-70
2023/06/06 01:22:38;;;;;;;;;;;19.20;58.70;;;;;;5025200;28;1365;-69
2023/06/06 01:25:04;;;;;;;;;;;19.20;58.70;;;;;;5029410;28;792;-69
2023/06/06 01:27:33;;;;;;;;;;;19.20;59.00;;;;;;5026255;28;814;-69
2023/06/06 01:29:58;;;;;;;;;;;19.20;58.70;;;;;;5028393;28;856;-69
2023/06/06 01:32:39;;;;;;;;;;;19.20;58.80;;;;;;5029218;28;1963;-68
2023/06/06 01:35:17;;;;;;;;;;;19.20;58.80;;;;;;5028579;28;1085;-69
2023/06/06 01:37:54;;;;;;;;;;;19.20;58.80;;;;;;5029566;28;895;-69
2023/06/06 01:40:20;;;;;;;;;;;19.20;58.80;;;;;;5027841;28;1289;-69
2023/06/06 01:42:46;;;;;;;;;;;19.20;58.90;;;;;;5026978;28;1364;-69
2023/06/06 01:45:12;;;;;;;;;;;19.20;58.90;;;;;;5028594;28;863;-68
2023/06/06 01:47:38;;;;;;;;;;;19.20;58.90;;;;;;5026901;28;816;-69
2023/06/06 01:50:07;;;;;;;;;;;19.20;58.90;;;;;;5028827;28;1165;-69
2023/06/06 01:52:36;;;;;;;;;;;19.20;58.90;;;;;;5028154;28;1987;-69
2023/06/06 01:55:01;;;;;;;;;;;19.20;59.00;;;;;;5020279;28;956;-68
2023/06/06 01:57:27;;;;;;;;;;;19.20;59.00;;;;;;5026808;28;854;-68
2023/06/06 01:59:53;;;;;;;;;;;19.20;59.00;;;;;;5028902;28;1208;-68
2023/06/06 02:02:18;;;;;;;;;;;19.20;59.00;;;;;;5029078;28;871;-68
2023/06/06 02:04:43;;;;;;;;;;;19.20;59.00;;;;;;5030027;28;1260;-69
2023/06/06 02:07:11;;;;;;;;;;;19.20;59.00;;;;;;5027851;28;876;-68
2023/06/06 02:09:36;;;;;;;;;;;19.20;59.10;;;;;;5027111;28;980;-68
2023/06/06 02:12:02;;;;;;;;;;;19.20;59.10;;;;;;5028255;28;1963;-69
2023/06/06 02:14:27;;;;;;;;;;;19.20;59.10;;;;;;5027496;28;1296;-69
2023/06/06 02:16:54;;;;;;;;;;;19.20;59.20;;;;;;5025043;28;842;-68
2023/06/06 02:19:19;;;;;;;;;;;19.20;59.20;;;;;;5026853;28;856;-69
2023/06/06 02:21:47;;;;;;;;;;;19.20;59.20;;;;;;5028773;28;857;-69
2023/06/06 02:24:12;;;;;;;;;;;19.20;59.20;;;;;;5027087;28;1335;-68
2023/06/06 02:26:41;;;;;;;;;;;19.20;59.20;;;;;;5024419;28;1371;-69
2023/06/06 02:29:07;;;;;;;;;;;19.20;59.20;;;;;;5029606;28;852;-69
2023/06/06 02:31:32;;;;;;;;;;;19.20;59.20;;;;;;5027984;28;1018;-68
2023/06/06 02:33:57;;;;;;;;;;;19.20;59.30;;;;;;5024807;28;1969;-69
2023/06/06 02:36:23;;;;;;;;;;;19.20;59.30;;;;;;5028130;28;908;-69
2023/06/06 02:38:48;;;;;;;;;;;19.20;59.30;;;;;;5031893;28;912;-69
2023/06/06 02:41:15;;;;;;;;;;;19.20;59.30;;;;;;5028767;28;1257;-68
2023/06/06 02:43:42;;;;;;;;;;;19.20;59.40;;;;;;5029942;28;1284;-69
2023/06/06 02:46:07;;;;;;;;;;;19.20;59.40;;;;;;5031184;28;907;-69
2023/06/06 02:48:33;;;;;;;;;;;19.20;59.40;;;;;;5031850;28;812;-69
2023/06/06 02:50:59;;;;;;;;;;;19.20;59.40;;;;;;5030203;28;1018;-69
2023/06/06 02:53:24;;;;;;;;;;;19.20;59.40;;;;;;5030636;28;1914;-69
2023/06/06 02:55:50;;;;;;;;;;;19.20;59.40;;;;;;5031572;28;961;-69
2023/06/06 02:58:27;;;;;;;;;;;19.20;59.40;;;;;;5032592;28;915;-69
2023/06/06 03:00:53;;;;;;;;;;;19.20;59.50;;;;;;5029886;28;851;-69
2023/06/06 03:03:18;;;;;;;;;;;19.20;59.50;;;;;;5028116;28;1344;-68
2023/06/06 03:05:44;;;;;;;;;;;19.20;59.50;;;;;;5030098;28;848;-68
2023/06/06 03:08:10;;;;;;;;;;;19.20;59.50;;;;;;5027110;28;1335;-68
2023/06/06 03:10:35;;;;;;;;;;;19.20;59.50;;;;;;5032410;28;830;-69
2023/06/06 03:13:01;;;;;;;;;;;19.20;59.60;;;;;;5030988;28;1906;-69
2023/06/06 03:15:29;;;;;;;;;;;19.20;59.50;;;;;;5031815;28;909;-68
2023/06/06 03:17:54;;;;;;;;;;;19.20;59.60;;;;;;5030673;28;914;-68
2023/06/06 03:20:20;;;;;;;;;;;19.20;59.60;;;;;;5029744;28;810;-68
2023/06/06 03:22:46;;;;;;;;;;;19.20;59.60;;;;;;5029311;28;1322;-69
2023/06/06 03:25:13;;;;;;;;;;;19.20;59.60;;;;;;5030839;28;857;-69
2023/06/06 03:27:41;;;;;;;;;;;19.20;59.60;;;;;;5031278;28;890;-69
2023/06/06 03:30:07;;;;;;;;;;;19.20;59.60;;;;;;5028826;28;1122;-69
2023/06/06 03:32:32;;;;;;;;;;;19.20;59.70;;;;;;5031950;28;1887;-69
2023/06/06 03:34:58;;;;;;;;;;;19.20;59.70;;;;;;5031552;28;1499;-69
2023/06/06 03:37:23;;;;;;;;;;;19.20;59.70;;;;;;5028443;28;962;-69
2023/06/06 03:39:49;;;;;;;;;;;19.20;59.70;;;;;;5030535;28;1002;-69
2023/06/06 03:42:14;;;;;;;;;;;19.20;59.70;;;;;;5028945;28;808;-69
2023/06/06 03:44:40;;;;;;;;;;;19.20;59.70;;;;;;5018879;28;1271;-69
2023/06/06 03:47:05;;;;;;;;;;;19.20;59.70;;;;;;5031050;28;896;-69
2023/06/06 03:49:36;;;;;;;;;;;19.20;59.80;;;;;;5029058;28;874;-69
2023/06/06 03:52:01;;;;;;;;;;;19.20;59.80;;;;;;5031758;28;816;-69
2023/06/06 03:54:27;;;;;;;;;;;19.20;59.80;;;;;;5031262;28;2003;-69
2023/06/06 03:56:54;;;;;;;;;;;19.20;59.80;;;;;;5030075;28;860;-69
2023/06/06 03:59:19;;;;;;;;;;;19.20;59.80;;;;;;5029184;28;869;-68
2023/06/06 04:01:45;;;;;;;;;;;19.20;59.80;;;;;;5029342;28;920;-68
2023/06/06 04:04:15;;;;;;;;;;;19.20;59.80;;;;;;5028109;28;1355;-68
2023/06/06 04:06:41;;;;;;;;;;;19.20;59.90;;;;;;5027230;28;936;-68
2023/06/06 04:09:10;;;;;;;;;;;19.20;59.90;;;;;;5026504;28;864;-69
2023/06/06 04:11:36;;;;;;;;;;;19.20;59.90;;;;;;5025670;28;888;-69
2023/06/06 04:14:02;;;;;;;;;;;19.20;59.90;;;;;;5029066;28;1954;-69
2023/06/06 04:16:27;;;;;;;;;;;19.20;60.00;;;;;;5030540;28;848;-70
2023/06/06 04:18:53;;;;;;;;;;;19.20;59.90;;;;;;5029235;28;889;-69
2023/06/06 04:21:18;;;;;;;;;;;19.20;60.00;;;;;;5030393;28;805;-69
2023/06/06 04:23:45;;;;;;;;;;;19.20;60.00;;;;;;5023413;28;1271;-69
2023/06/06 04:26:21;;;;;;;;;;;19.20;60.00;;;;;;5028983;28;852;-68
2023/06/06 04:28:48;;;;;;;;;;;19.20;60.00;;;;;;5029679;28;812;-68
2023/06/06 04:31:14;;;;;;;;;;;19.20;60.00;;;;;;5029050;28;835;-69
2023/06/06 04:33:39;;;;;;;;;;;19.20;60.00;;;;;;5030570;28;1910;-69
2023/06/06 04:36:05;;;;;;;;;;;19.20;60.10;;;;;;5026502;28;947;-68
2023/06/06 04:38:31;;;;;;;;;;;19.20;60.10;;;;;;5028171;28;942;-68
2023/06/06 04:41:00;;;;;;;;;;;19.20;60.10;;;;;;5028878;28;1530;-69
2023/06/06 04:43:27;;;;;;;;;;;19.20;60.10;;;;;;5023221;28;1260;-68
2023/06/06 04:45:53;;;;;;;;;;;19.20;60.10;;;;;;5027835;28;868;-68
2023/06/06 04:48:19;;;;;;;;;;;19.20;60.10;;;;;;5029606;28;788;-69
2023/06/06 04:50:49;;;;;;;;;;;19.20;60.10;;;;;;5029594;28;884;-69
2023/06/06 04:53:14;;;;;;;;;;;19.20;60.20;;;;;;5028808;28;1898;-69
2023/06/06 04:55:40;;;;;;;;;;;19.20;60.20;;;;;;5028438;28;886;-68
2023/06/06 04:58:05;;;;;;;;;;;19.20;60.20;;;;;;5030315;28;855;-69
2023/06/06 05:00:32;;;;;;;;;;;19.20;60.20;;;;;;5028506;28;947;-69
2023/06/06 05:02:57;;;;;;;;;;;19.20;60.20;;;;;;5029854;28;1250;-69
2023/06/06 05:05:23;;;;;;;;;;;19.20;60.30;;;;;;5029784;28;887;-69
2023/06/06 05:07:48;;;;;;;;;;;19.20;60.30;;;;;;5027445;28;871;-69
2023/06/06 05:10:15;;;;;;;;;;;19.20;60.30;;;;;;5029424;28;943;-69
2023/06/06 05:12:40;;;;;;;;;;;19.20;60.30;;;;;;5027920;28;1907;-69
2023/06/06 05:15:06;;;;;;;;;;;19.20;60.30;;;;;;5027709;28;891;-69
2023/06/06 05:17:32;;;;;;;;;;;19.20;60.40;;;;;;5029147;28;891;-69
2023/06/06 05:19:57;;;;;;;;;;;19.20;60.40;;;;;;5024662;28;1002;-69
2023/06/06 05:22:22;;;;;;;;;;;19.20;60.40;;;;;;5027756;28;836;-69
2023/06/06 05:24:48;;;;;;;;;;;19.20;60.40;;;;;;5028869;28;1363;-68
2023/06/06 05:27:14;;;;;;;;;;;19.20;60.40;;;;;;5029921;28;950;-69
2023/06/06 05:29:40;;;;;;;;;;;19.20;60.40;;;;;;5027822;28;2093;-66
2023/06/06 05:32:07;;;;;;;;;;;19.20;60.40;;;;;;5026190;28;1877;-67
2023/06/06 05:34:33;;;;;;;;;;;19.20;60.40;;;;;;5028454;28;2161;-67
2023/06/06 05:36:58;;;;;;;;;;;19.20;60.50;;;;;;5029426;28;1458;-67
2023/06/06 05:39:24;;;;;;;;;;;19.20;60.50;;;;;;5027638;28;1287;-67
2023/06/06 05:41:54;;;;;;;;;;;19.20;60.50;;;;;;5028652;28;2113;-67
2023/06/06 05:44:20;;;;;;;;;;;19.20;60.50;;;;;;5025755;28;1422;-67
2023/06/06 05:46:47;;;;;;;;;;;19.20;61.10;;;;;;5029233;28;1639;-68
2023/06/06 05:49:13;;;;;;;;;;;19.20;60.50;;;;;;5029413;28;875;-67
2023/06/06 05:51:38;;;;;;;;;;;19.20;60.50;;;;;;5028843;28;848;-67
2023/06/06 05:54:05;;;;;;;;;;;19.20;59.90;;;;;;5027041;28;1898;-68
2023/06/06 05:56:31;;;;;;;;;;;19.20;59.00;;;;;;5028522;28;781;-68
2023/06/06 05:58:56;;;;;;;;;;;19.20;58.30;;;;;;5028574;28;843;-67
2023/06/06 06:01:24;;;;;;;;;;;19.20;57.40;;;;;;5023138;28;818;-67
2023/06/06 06:03:52;;;;;;;;;;;19.20;57.30;;;;;;5025481;28;1260;-69
2023/06/06 06:06:19;;;;;;;;;;;19.20;56.70;;;;;;5023725;28;853;-70
2023/06/06 06:08:48;;;;;;;;;;;19.10;55.90;;;;;;5027181;28;844;-72
2023/06/06 06:11:14;;;;;;;;;;;19.10;55.60;;;;;;5028773;28;872;-67
2023/06/06 06:13:39;;;;;;;;;;;19.20;55.80;;;;;;5026910;28;1965;-66
2023/06/06 06:16:05;;;;;;;;;;;19.10;55.40;;;;;;5027140;28;860;-66
2023/06/06 06:18:30;;;;;;;;;;;19.10;55.50;;;;;;5023089;28;1054;-66
2023/06/06 06:20:56;;;;;;;;;;;19.10;55.60;;;;;;5027491;28;829;-68
2023/06/06 06:23:21;;;;;;;;;;;19.10;55.50;;;;;;5028414;28;1231;-68
2023/06/06 06:25:47;;;;;;;;;;;19.10;55.80;;;;;;5027344;28;1051;-66
2023/06/06 06:28:22;;;;;;;;;;;19.10;56.00;;;;;;5027160;28;1011;-67
2023/06/06 06:30:47;;;;;;;;;;;19.10;56.60;;;;;;5024725;28;1342;-67
2023/06/06 06:33:13;;;;;;;;;;;19.10;57.50;;;;;;5026533;28;1906;-68
2023/06/06 06:35:40;;;;;;;;;;;19.10;57.40;;;;;;5027114;28;803;-70
2023/06/06 06:38:06;;;;;;;;;;;19.10;57.60;;;;;;5027614;28;812;-69
2023/06/06 06:40:31;;;;;;;;;;;19.10;57.70;;;;;;5026914;28;1247;-69
2023/06/06 06:42:56;;;;;;;;;;;19.10;57.30;;;;;;5028007;28;1370;-69
2023/06/06 06:45:23;;;;;;;;;;;19.10;57.40;;;;;;5040302;28;1265;-69
2023/06/06 06:47:49;;;;;;;;;;;19.20;57.20;;;;;;5027363;28;863;-69
2023/06/06 06:50:14;;;;;;;;;;;19.20;58.20;;;;;;5026985;28;826;-69
2023/06/06 06:52:40;;;;;;;;;;;19.20;57.80;;;;;;5026825;28;1879;-69
2023/06/06 06:55:06;;;;;;;;;;;19.20;57.20;;;;;;5022040;28;887;-68
2023/06/06 06:57:31;;;;;;;;;;;19.20;57.40;;;;;;5026923;28;1069;-68
2023/06/06 06:59:57;;;;;;;;;;;19.20;57.20;;;;;;5023393;28;898;-68
2023/06/06 07:02:23;;;;;;;;;;;19.20;56.80;;;;;;5026468;28;922;-68
2023/06/06 07:04:49;;;;;;;;;;;19.20;57.20;;;;;;5011598;28;1350;-68
2023/06/06 07:07:15;;;;;;;;;;;19.20;56.70;;;;;;5028200;28;1353;-68
2023/06/06 07:09:41;;;;;;;;;;;19.20;56.20;;;;;;5024185;28;867;-68
2023/06/06 07:12:07;;;;;;;;;;;19.20;55.90;;;;;;5026028;28;830;-68
2023/06/06 07:14:33;;;;;;;;;;;19.20;56.70;;;;;;5027946;28;1911;-68
2023/06/06 07:16:59;;;;;;;;;;;19.20;56.90;;;;;;5024801;28;1006;-69
2023/06/06 07:19:26;;;;;;;;;;;19.20;56.20;;;;;;5027137;28;885;-68
2023/06/06 07:21:52;;;;;;;;;;;19.20;55.40;;;;;;5025759;28;1309;-68
2023/06/06 07:24:20;;;;;;;;;;;19.20;56.30;;;;;;5030185;28;1295;-67
2023/06/06 07:26:45;;;;;;;;;;;19.30;57.20;;;;;;5029994;28;864;-68
2023/06/06 07:29:11;;;;;;;;;;;19.30;57.70;;;;;;5029742;28;905;-67
2023/06/06 07:31:37;;;;;;;;;;;19.30;58.00;;;;;;5031133;28;809;-68
2023/06/06 07:34:03;;;;;;;;;;;19.40;58.40;;;;;;5014527;28;1958;-68
2023/06/06 07:36:29;;;;;;;;;;;19.40;58.60;;;;;;5027836;28;1320;-67
2023/06/06 07:38:55;;;;;;;;;;;19.40;58.60;;;;;;5027405;28;1238;-68
2023/06/06 07:41:21;;;;;;;;;;;19.40;58.70;;;;;;5027153;28;1263;-67
2023/06/06 07:43:47;;;;;;;;;;;19.40;58.90;;;;;;5027963;28;1818;-68
2023/06/06 07:46:12;;;;;;;;;;;19.40;59.10;;;;;;5030378;28;838;-68
2023/06/06 07:48:38;;;;;;;;;;;19.40;59.20;;;;;;5029330;28;833;-67
2023/06/06 07:51:03;;;;;;;;;;;19.40;59.30;;;;;;5030436;28;1250;-68
2023/06/06 07:53:29;;;;;;;;;;;19.40;59.40;;;;;;5031131;28;2301;-69
2023/06/06 07:55:55;;;;;;;;;;;19.40;59.50;;;;;;5027408;28;872;-69
2023/06/06 07:58:25;;;;;;;;;;;19.50;59.80;;;;;;5033198;28;816;-68
2023/06/06 08:00:51;;;;;;;;;;;19.50;59.90;;;;;;5033240;28;884;-69
2023/06/06 08:03:16;;;;;;;;;;;19.50;60.20;;;;;;5030600;28;1300;-68
2023/06/06 08:05:42;;;;;;;;;;;19.50;60.50;;;;;;5032012;28;774;-68
2023/06/06 08:08:07;;;;;;;;;;;19.50;60.70;;;;;;5031523;28;793;-68
2023/06/06 08:10:33;;;;;;;;;;;19.50;61.10;;;;;;5029736;28;932;-68
2023/06/06 08:13:01;;;;;;;;;;;19.50;61.40;;;;;;5028470;28;1969;-68
2023/06/06 08:15:27;;;;;;;;;;;19.50;61.70;;;;;;5029148;28;844;-68
2023/06/06 08:17:53;;;;;;;;;;;19.50;62.90;;;;;;5030502;28;844;-67
2023/06/06 08:20:19;;;;;;;;;;;19.60;63.90;;;;;;5030593;28;1034;-67
2023/06/06 08:22:50;;;;;;;;;;;19.60;64.10;;;;;;5027417;28;1176;-66
2023/06/06 08:25:16;;;;;;;;;;;19.60;63.80;;;;;;5030396;28;2121;-68
2023/06/06 08:27:42;;;;;;;;;;;19.60;63.60;;;;;;5028740;28;1219;-68
2023/06/06 08:30:08;;;;;;;;;;;19.60;63.60;;;;;;5029507;28;1225;-68
2023/06/06 08:32:33;;;;;;;;;;;19.60;63.80;;;;;;5031056;28;1906;-69
2023/06/06 08:34:59;;;;;;;;;;;19.60;63.80;;;;;;5030404;28;1365;-69
2023/06/06 08:37:25;;;;;;;;;;;19.60;63.80;;;;;;5006292;28;789;-70
2023/06/06 08:39:50;;;;;;;;;;;19.60;63.70;;;;;;5008551;28;906;-69
2023/06/06 08:42:17;;;;;;;;;;;19.70;63.80;;;;;;5029042;28;793;-70
2023/06/06 08:44:43;;;;;;;;;;;19.70;64.10;;;;;;5029469;28;1224;-69
2023/06/06 08:47:08;;;;;;;;;;;19.70;64.30;;;;;;5018858;28;943;-69
2023/06/06 08:49:34;;;;;;;;;;;19.70;65.00;;;;;;5028795;28;1229;-69
2023/06/06 08:52:01;;;;;;;;;;;19.70;65.20;;;;;;5028795;28;2168;-69
2023/06/06 08:54:26;;;;;;;;;;;19.80;65.20;;;;;;5022929;28;1997;-69
2023/06/06 08:56:53;;;;;;;;;;;19.80;65.00;;;;;;5011969;28;1449;-69
2023/06/06 08:59:18;;;;;;;;;;;19.80;64.90;;;;;;5019923;28;903;-69
2023/06/06 09:01:44;;;;;;;;;;;19.80;64.50;;;;;;5028001;28;793;-69
2023/06/06 09:04:13;;;;;;;;;;;19.90;64.50;;;;;;5027805;28;1354;-69
2023/06/06 09:06:40;;;;;;;;;;;19.90;64.00;;;;;;5029883;28;930;-69
2023/06/06 09:09:07;;;;;;;;;;;19.90;64.00;;;;;;5027631;28;868;-69
2023/06/06 09:11:33;;;;;;;;;;;19.80;63.60;;;;;;5029804;28;795;-69
2023/06/06 09:13:58;;;;;;;;;;;19.80;63.60;;;;;;5028442;28;1993;-69
2023/06/06 09:16:26;;;;;;;;;;;19.80;63.70;;;;;;5029523;28;833;-69
2023/06/06 09:18:51;;;;;;;;;;;19.80;63.60;;;;;;5028696;28;1636;-69
2023/06/06 09:21:17;;;;;;;;;;;19.80;63.70;;;;;;5028876;28;995;-69
2023/06/06 09:23:42;;;;;;;;;;;19.80;63.70;;;;;;5025108;28;1225;-69
2023/06/06 09:26:18;;;;;;;;;;;19.80;64.00;;;;;;5028461;28;1643;-69
2023/06/06 09:28:44;;;;;;;;;;;19.80;64.00;;;;;;5028407;28;1292;-69
2023/06/06 09:31:22;;;;;;;;;;;19.80;64.00;;;;;;5027730;28;879;-69
2023/06/06 09:33:49;;;;;;;;;;;19.80;64.00;;;;;;5029033;28;1957;-69
2023/06/06 09:36:14;;;;;;;;;;;19.80;64.30;;;;;;5028610;28;853;-69
2023/06/06 09:38:40;;;;;;;;;;;19.80;64.50;;;;;;5025220;28;863;-69
2023/06/06 09:41:05;;;;;;;;;;;19.80;64.60;;;;;;5026804;28;1706;-69
2023/06/06 09:43:34;;;;;;;;;;;19.80;64.70;;;;;;5026404;28;1321;-69
2023/06/06 09:46:00;;;;;;;;;;;19.80;64.90;;;;;;5025340;28;843;-69
2023/06/06 09:48:27;;;;;;;;;;;19.80;65.60;;;;;;5027969;28;843;-69
2023/06/06 09:50:52;;;;;;;;;;;19.80;65.90;;;;;;5025735;28;907;-69
2023/06/06 09:53:18;;;;;;;;;;;19.80;65.90;;;;;;5029144;28;1919;-69
2023/06/06 09:55:43;;;;;;;;;;;19.80;66.00;;;;;;5043370;28;2656;-69
2023/06/06 09:58:09;;;;;;;;;;;19.80;66.00;;;;;;5029129;28;808;-69
2023/06/06 10:00:37;;;;;;;;;;;19.80;66.20;;;;;;5021050;28;865;-69
2023/06/06 10:03:04;;;;;;;;;;;19.80;66.30;;;;;;5028746;28;1283;-69
2023/06/06 10:05:29;;;;;;;;;;;19.80;66.40;;;;;;5026804;28;794;-69
2023/06/06 10:07:55;;;;;;;;;;;19.80;67.00;;;;;;5027730;28;877;-69
2023/06/06 10:10:20;;;;;;;;;;;19.80;68.00;;;;;;5028426;28;860;-69
2023/06/06 10:12:46;;;;;;;;;;;19.90;68.00;;;;;;5026025;28;1910;-69
2023/06/06 10:15:12;;;;;;;;;;;19.80;67.50;;;;;;5025476;28;944;-69
2023/06/06 10:17:38;;;;;;;;;;;19.90;67.30;;;;;;5027770;28;860;-69
2023/06/06 10:20:07;;;;;;;;;;;19.90;67.30;;;;;;5027920;28;1376;-69
2023/06/06 10:22:35;;;;;;;;;;;19.90;66.80;;;;;;5029280;28;813;-69
2023/06/06 10:25:03;;;;;;;;;;;19.90;66.70;;;;;;5027336;28;1409;-69
2023/06/06 10:27:29;;;;;;;;;;;19.90;66.70;;;;;;5028429;28;850;-69
2023/06/06 10:30:18;;;;;;;;;;;19.80;66.90;;;;;;5023272;28;873;-69
2023/06/06 10:32:44;;;;;;;;;;;19.90;66.90;;;;;;5024298;28;1963;-69
2023/06/06 10:35:10;;;;;;;;;;;19.90;66.90;;;;;;5026373;28;1515;-69
2023/06/06 10:37:38;;;;;;;;;;;19.90;66.80;;;;;;5028809;28;868;-69
2023/06/06 10:40:04;;;;;;;;;;;19.80;66.60;;;;;;5025335;28;1127;-69
2023/06/06 10:42:37;;;;;;;;;;;19.90;66.50;;;;;;5026746;28;896;-69
2023/06/06 10:45:03;;;;;;;;;;;19.90;67.00;;;;;;5027758;28;1315;-68
2023/06/06 10:47:30;;;;;;;;;;;19.90;66.90;;;;;;5025949;28;891;-68
2023/06/06 10:50:08;;;;;;;;;;;19.80;66.50;;;;;;5026161;28;863;-69
2023/06/06 10:52:46;;;;;;;;;;;19.80;66.60;;;;;;5028036;28;1969;-69
2023/06/06 10:55:15;;;;;;;;;;;19.80;66.80;;;;;;5026382;28;898;-68
2023/06/06 10:57:59;;;;;;;;;;;19.90;66.70;;;;;;5029273;28;864;-67
2023/06/06 11:00:25;;;;;;;;;;;19.90;66.60;;;;;;5031356;28;1061;-68
2023/06/06 11:02:58;;;;;;;;;;;19.80;66.60;;;;;;5026617;28;1256;-68
2023/06/06 11:05:24;;;;;;;;;;;19.90;66.60;;;;;;5024635;28;853;-68
2023/06/06 11:07:50;;;;;;;;;;;19.80;66.70;;;;;;5029592;28;828;-68
2023/06/06 11:10:21;;;;;;;;;;;19.90;66.80;;;;;;5032087;28;1295;-68
2023/06/06 11:12:48;;;;;;;;;;;19.80;66.90;;;;;;5030204;28;1969;-68
2023/06/06 11:15:16;;;;;;;;;;;19.90;66.90;;;;;;5029969;28;895;-68
2023/06/06 11:17:43;;;;;;;;;;;19.90;67.00;;;;;;5029910;28;1530;-68
2023/06/06 11:20:18;;;;;;;;;;;19.80;66.90;;;;;;5030700;28;1316;-68
2023/06/06 11:23:08;;;;;;;;;;;19.90;67.00;;;;;;5030594;28;1214;-69
2023/06/06 11:25:35;;;;;;;;;;;19.80;66.90;;;;;;5031125;28;828;-69
2023/06/06 11:28:01;;;;;;;;;;;19.90;67.00;;;;;;5031784;28;820;-69
2023/06/06 11:30:33;;;;;;;;;;;19.90;67.10;;;;;;5031722;28;805;-69
2023/06/06 11:32:59;;;;;;;;;;;19.90;67.10;;;;;;5029887;28;1894;-69
2023/06/06 11:35:27;;;;;;;;;;;19.80;67.10;;;;;;5030136;28;1077;-69
2023/06/06 11:37:53;;;;;;;;;;;19.90;67.10;;;;;;5027871;28;844;-69
2023/06/06 11:40:19;;;;;;;;;;;19.90;67.10;;;;;;5027784;28;1310;-69
2023/06/06 11:42:44;;;;;;;;;;;19.90;67.10;;;;;;5031768;28;1362;-69
2023/06/06 11:45:14;;;;;;;;;;;19.80;67.20;;;;;;5030971;28;813;-69
2023/06/06 11:47:40;;;;;;;;;;;19.90;67.20;;;;;;5029745;28;1142;-67
2023/06/06 11:50:06;;;;;;;;;;;19.90;67.20;;;;;;5031088;28;822;-69
2023/06/06 11:52:31;;;;;;;;;;;19.90;67.20;;;;;;5029424;28;1961;-69
2023/06/06 11:55:04;;;;;;;;;;;19.80;67.60;;;;;;5028847;28;1255;-69
2023/06/06 11:57:31;;;;;;;;;;;19.90;67.80;;;;;;5026729;28;872;-69
2023/06/06 11:59:59;;;;;;;;;;;19.90;68.00;;;;;;5022180;28;911;-69
2023/06/06 12:02:24;;;;;;;;;;;19.90;68.20;;;;;;5029485;28;848;-69
2023/06/06 12:04:50;;;;;;;;;;;19.90;68.40;;;;;;5031440;28;1243;-69
2023/06/06 12:07:15;;;;;;;;;;;19.90;68.50;;;;;;5029914;28;888;-69
2023/06/06 12:09:41;;;;;;;;;;;19.90;68.60;;;;;;5030635;28;887;-70
2023/06/06 12:12:06;;;;;;;;;;;20.00;69.20;;;;;;5025434;28;879;-68
2023/06/06 12:14:32;;;;;;;;;;;20.00;69.40;;;;;;5032242;28;1911;-68
2023/06/06 12:17:02;;;;;;;;;;;20.00;69.30;;;;;;5024507;28;893;-68
2023/06/06 12:19:28;;;;;;;;;;;20.00;69.30;;;;;;5028893;28;836;-68
2023/06/06 12:21:53;;;;;;;;;;;19.90;69.20;;;;;;5027343;28;917;-68
2023/06/06 12:24:22;;;;;;;;;;;20.00;69.40;;;;;;5028350;28;1267;-68
2023/06/06 12:27:02;;;;;;;;;;;19.90;69.30;;;;;;5028592;28;1468;-68
2023/06/06 12:29:33;;;;;;;;;;;19.90;69.50;;;;;;5029378;28;1378;-68
2023/06/06 12:32:18;;;;;;;;;;;19.90;69.90;;;;;;5030038;28;851;-68
2023/06/06 12:34:50;;;;;;;;;;;19.90;70.00;;;;;;5029191;28;1890;-68
2023/06/06 12:37:16;;;;;;;;;;;20.00;69.90;;;;;;5030208;28;788;-68
2023/06/06 12:39:42;;;;;;;;;;;20.00;70.00;;;;;;5028510;28;1317;-68
2023/06/06 12:42:14;;;;;;;;;;;20.00;69.90;;;;;;5030427;28;930;-68
2023/06/06 12:44:40;;;;;;;;;;;20.00;69.90;;;;;;5027478;28;1266;-68
2023/06/06 12:47:06;;;;;;;;;;;20.00;69.90;;;;;;5028187;28;889;-68
2023/06/06 12:49:36;;;;;;;;;;;20.00;70.50;;;;;;5025539;28;1235;-68
2023/06/06 12:52:01;;;;;;;;;;;20.00;70.40;;;;;;5029487;28;838;-68
2023/06/06 12:54:26;;;;;;;;;;;20.10;70.30;;;;;;5025391;28;1923;-68
2023/06/06 12:56:52;;;;;;;;;;;20.10;70.20;;;;;;5026149;28;1058;-68
2023/06/06 12:59:18;;;;;;;;;;;20.10;70.10;;;;;;5030920;28;942;-68
2023/06/06 13:01:43;;;;;;;;;;;20.10;69.90;;;;;;5028961;28;896;-68
2023/06/06 13:04:09;;;;;;;;;;;20.10;69.80;;;;;;5029775;28;1367;-68
2023/06/06 13:06:36;;;;;;;;;;;20.10;69.70;;;;;;5030469;28;1574;-68
2023/06/06 13:09:01;;;;;;;;;;;20.10;69.70;;;;;;5029875;28;832;-68
2023/06/06 13:11:27;;;;;;;;;;;20.10;69.60;;;;;;5027713;28;934;-68
2023/06/06 13:13:52;;;;;;;;;;;20.10;69.50;;;;;;5029968;28;1902;-68
2023/06/06 13:16:18;;;;;;;;;;;20.10;69.60;;;;;;5030253;28;876;-68
2023/06/06 13:18:45;;;;;;;;;;;20.10;69.50;;;;;;5029984;28;1161;-68
2023/06/06 13:21:10;;;;;;;;;;;20.00;69.60;;;;;;5027390;28;757;-68
2023/06/06 13:23:36;;;;;;;;;;;20.00;69.50;;;;;;5024791;28;1241;-68
2023/06/06 13:26:01;;;;;;;;;;;20.10;69.60;;;;;;5025687;28;874;-68
2023/06/06 13:28:27;;;;;;;;;;;20.00;69.50;;;;;;5029422;28;828;-69
2023/06/06 13:30:53;;;;;;;;;;;20.00;69.50;;;;;;5029206;28;911;-69
2023/06/06 13:33:19;;;;;;;;;;;20.00;69.60;;;;;;5027575;28;1902;-69
2023/06/06 13:35:45;;;;;;;;;;;20.00;69.40;;;;;;5026598;28;813;-69
2023/06/06 13:38:12;;;;;;;;;;;20.00;69.40;;;;;;5028685;28;862;-68
2023/06/06 13:40:37;;;;;;;;;;;20.00;69.20;;;;;;5027152;28;1526;-68
2023/06/06 13:43:06;;;;;;;;;;;20.00;69.00;;;;;;5029027;28;1258;-68
2023/06/06 13:45:32;;;;;;;;;;;20.00;68.90;;;;;;5029428;28;1324;-68
2023/06/06 13:47:57;;;;;;;;;;;20.00;68.70;;;;;;5029387;28;1552;-68
2023/06/06 13:50:23;;;;;;;;;;;20.00;69.40;;;;;;5027939;28;907;-68
2023/06/06 13:52:49;;;;;;;;;;;20.00;68.60;;;;;;5026928;28;1894;-68
2023/06/06 13:55:14;;;;;;;;;;;20.00;68.60;;;;;;5027392;28;849;-68
2023/06/06 13:57:41;;;;;;;;;;;20.00;68.60;;;;;;5025613;28;863;-68
2023/06/06 14:00:11;;;;;;;;;;;20.00;68.60;;;;;;5027989;28;844;-69
2023/06/06 14:02:37;;;;;;;;;;;20.00;68.60;;;;;;5007583;28;1392;-68
2023/06/06 14:05:03;;;;;;;;;;;20.10;69.80;;;;;;5028718;28;1153;-68
2023/06/06 14:07:28;;;;;;;;;;;20.10;70.10;;;;;;5029824;28;939;-68
2023/06/06 14:09:53;;;;;;;;;;;20.10;70.00;;;;;;5027591;28;887;-68
2023/06/06 14:12:19;;;;;;;;;;;20.10;69.90;;;;;;5025836;28;804;-68
2023/06/06 14:14:46;;;;;;;;;;;20.20;69.70;;;;;;5027398;28;1967;-68
2023/06/06 14:17:12;;;;;;;;;;;20.20;69.60;;;;;;5026806;28;851;-68
2023/06/06 14:19:39;;;;;;;;;;;20.20;69.50;;;;;;5027776;28;921;-69
2023/06/06 14:24:54;;;;;;;;;;;20.20;68.90;;;;;;5026466;28;1401;-70
2023/06/06 14:27:19;;;;;;;;;;;20.10;68.80;;;;;;5023468;28;836;-70
2023/06/06 14:29:46;;;;;;;;;;;20.10;68.70;;;;;;5023471;28;869;-70
2023/06/06 14:32:11;;;;;;;;;;;20.10;68.70;;;;;;5029341;28;815;-68
2023/06/06 14:34:37;;;;;;;;;;;20.10;68.70;;;;;;5032360;28;1969;-69
2023/06/06 14:37:03;;;;;;;;;;;20.10;68.70;;;;;;5031848;28;864;-70
2023/06/06 14:39:28;;;;;;;;;;;20.10;68.90;;;;;;5032841;28;1455;-67